Disclaimer

Please do not use the information listed here in-flight or in-navigation, as they are not provided to us by the airports but are provided by volunteers, so they might be outdated.

Search


Regions


Airport information page

Radio informations:
Tower (TWR) - 118.4 MHz

Airport informations:
Latitude: 19° 41' 13.13" N
Longitude: 079° 52' 58.04" W
Elevation: 8 feet - 2 meters
Operating hours: Remarks
Operating agency: Civil government, landing fees and diplomatic clearance may be required
Timezone: UTC-5
Fuel: Jet A1, without icing nhibitor.

100/130 octane gasoline, leaded, MIL-L-5572F (GREEN)

Runway information:
09/27 - 6000 x 148 feet< - >1829 x 45 meters

Recent METARs:
MWCB 162100Z 05006KT 030V120 9999 FEW018 30/24 Q1013
MWCB 162100Z 05006KT 030V120 9999 FEW018 30/24 Q1013
MWCB 162100Z 05006KT 030V120 9999 FEW018 30/24 Q1013

Airport on the map: